Terminal Aerodrome Forecast
Issued by NWS Sterling, VA

Current Version | Previous Version | Graphics & Text | Print | Product List | Glossary On
Versions: 1 2 3 4 5 6 7 8 9 10 11 12 13 14 15 16 17 18 19 20 21 22 23 24 25
676
FTUS41 KLWX 172333
TAFDCA
TAF
KDCA 172333Z 1800/1906 06008KT P6SM OVC010
     FM180200 07007KT 5SM SHRA BR OVC007
     FM180400 06007KT 3SM SHRA BR OVC003
     FM181700 07011G18KT 2SM -SHRA BR OVC006=

USA.gov is the U.S. government's official web portal to all federal, state and local government web resources and services.